ADDS METAR Data INFO
IDs: Format: Raw Decoded Include TAF

Data at: 2311 UTC 16 Jan 2018

KHOU 162253Z 35016G24KT 10SM -PL SCT018 SCT055 OVC075 M03/M06 A3062 RMK AO2 SLP375 P0000 T10331056 $